Time;durP1;ratioP1;P1;durP2;ratioP2;P2;SDS_P1;SDS_P2;PMS_P1;PMS_P2;Temp;Humidity;BMP_temperature;BMP_pressure;BME280_temperature;BME280_humidity;BME280_pressure;Samples;Min_cycle;Max_cycle;Signal;HPM_P1;HPM_P2
2022/10/01 00:00:25;;;;;;;14.95;10.15;;;;;;;23.81;41.11;101956.22;4198640;28;20052;-61
2022/10/01 00:02:26;;;;;;;13.57;10.20;;;;;;;23.84;41.35;101969.66;4198741;28;20045;-61
2022/10/01 00:04:31;;;;;;;16.58;10.30;;;;;;;23.85;41.50;101973.28;4199027;28;20434;-63
2022/10/01 00:06:34;;;;;;;14.60;10.02;;;;;;;23.86;41.09;101976.94;4198686;28;20040;-61
2022/10/01 00:08:41;;;;;;;12.75;9.82;;;;;;;23.84;41.13;101975.25;4198880;28;20109;-61
2022/10/01 00:10:43;;;;;;;13.82;9.80;;;;;;;23.70;41.37;101967.69;4198676;28;20041;-61
2022/10/01 00:12:47;;;;;;;13.82;10.00;;;;;;;23.86;41.08;101976.94;4198082;28;20468;-61
2022/10/01 00:14:48;;;;;;;12.50;9.45;;;;;;;23.85;41.02;101970.50;4198823;28;20549;-61
2022/10/01 00:16:50;;;;;;;13.88;10.05;;;;;;;23.78;41.16;101965.19;4198626;28;20418;-61
2022/10/01 00:18:53;;;;;;;12.68;9.45;;;;;;;22.79;41.18;101852.50;4199026;28;20044;-64
2022/10/01 00:20:57;;;;;;;13.65;9.20;;;;;;;23.84;41.44;101972.47;4198706;28;20102;-62
2022/10/01 00:23:01;;;;;;;12.73;9.98;;;;;;;23.84;41.32;101974.41;4197151;28;20443;-62
2022/10/01 00:25:04;;;;;;;14.63;9.50;;;;;;;23.84;41.46;101969.66;4188547;28;20032;-62
2022/10/01 00:27:05;;;;;;;13.18;9.02;;;;;;;23.83;41.18;101959.59;4183065;28;20090;-61
2022/10/01 00:29:12;;;;;;;13.45;10.02;;;;;;;23.84;41.08;101947.31;4182115;28;20099;-61
2022/10/01 00:31:14;;;;;;;16.33;9.93;;;;;;;23.76;41.18;101939.47;4181682;28;20102;-62
2022/10/01 00:33:15;;;;;;;13.02;9.15;;;;;;;23.78;41.41;101945.63;4181894;28;20028;-62
2022/10/01 00:35:17;;;;;;;14.02;9.43;;;;;;;23.81;41.19;101961.81;4181671;28;20098;-62
2022/10/01 00:37:21;;;;;;;16.67;9.07;;;;;;;23.74;41.28;101950.09;4181109;28;20041;-61
2022/10/01 00:39:22;;;;;;;12.75;9.00;;;;;;;23.81;41.12;101953.44;4181988;28;20118;-62
2022/10/01 00:41:25;;;;;;;11.35;8.15;;;;;;;23.84;41.51;101946.47;4182076;28;20095;-62
2022/10/01 00:43:30;;;;;;;11.68;8.00;;;;;;;23.84;41.47;101938.91;4181684;28;20107;-62
2022/10/01 00:45:31;;;;;;;12.68;9.43;;;;;;;23.70;41.34;101909.84;4181962;28;20049;-62
2022/10/01 00:47:43;;;;;;;11.20;9.02;;;;;;;23.82;41.40;101918.81;4181842;28;20098;-62
2022/10/01 00:49:46;;;;;;;14.13;9.35;;;;;;;23.83;41.35;101906.50;4181746;28;20442;-62
2022/10/01 00:51:56;;;;;;;12.55;8.82;;;;;;;23.84;41.36;101893.34;4181490;28;20543;-62
2022/10/01 00:54:07;;;;;;;11.43;8.93;;;;;;;23.81;41.40;101883.56;4181940;28;20045;-62
2022/10/01 00:56:08;;;;;;;11.88;8.50;;;;;;;23.83;41.48;101875.75;4181912;28;20091;-62
2022/10/01 00:58:12;;;;;;;11.02;8.43;;;;;;;23.81;41.29;101886.34;4181692;28;20086;-62
2022/10/01 01:00:14;;;;;;;11.40;9.02;;;;;;;23.60;41.52;101856.69;4181393;28;20091;-62
2022/10/01 01:02:15;;;;;;;11.77;9.05;;;;;;;23.82;41.18;101893.66;4181232;28;20155;-62
2022/10/01 01:04:16;;;;;;;10.93;8.40;;;;;;;23.63;41.33;101863.66;4181430;28;20388;-62
2022/10/01 01:06:17;;;;;;;11.65;8.80;;;;;;;23.80;41.42;101879.09;4181480;28;20049;-61
2022/10/01 01:08:19;;;;;;;12.85;8.70;;;;;;;23.79;41.45;101880.22;4181508;28;20408;-62
2022/10/01 01:10:43;;;;;;;12.93;8.48;;;;;;;23.32;41.55;101796.56;4181567;28;20044;-62
2022/10/01 01:13:09;;;;;;;13.45;8.15;;;;;;;23.79;41.43;101863.44;4181040;28;20044;-62
2022/10/01 01:15:16;;;;;;;10.68;8.10;;;;;;;23.82;41.41;101868.50;4181438;28;20550;-62
2022/10/01 01:18:01;;;;;;;10.00;7.78;;;;;;;23.76;41.34;101860.38;4181580;28;20098;-62
2022/10/01 01:20:15;;;;;;;10.10;8.05;;;;;;;23.83;41.30;101856.19;4146094;28;20045;-62
2022/10/01 01:22:21;;;;;;;11.48;8.00;;;;;;;23.83;41.08;101849.75;4181079;28;20545;-62
2022/10/01 01:24:30;;;;;;;10.70;7.65;;;;;;;23.82;41.41;101843.34;4181535;28;20091;-62
2022/10/01 01:27:05;;;;;;;10.52;7.65;;;;;;;23.81;41.45;101836.03;4181265;28;20045;-62
2022/10/01 01:29:28;;;;;;;10.70;7.95;;;;;;;23.81;41.66;101833.25;4180801;28;20447;-62
2022/10/01 01:31:40;;;;;;;10.68;7.72;;;;;;;23.65;41.25;101786.03;4181269;28;20419;-62
2022/10/01 01:33:46;;;;;;;11.90;8.82;;;;;;;23.82;41.34;101797.75;4180867;28;20438;-62
2022/10/01 01:35:52;;;;;;;12.23;7.65;;;;;;;23.80;41.55;101789.66;4181322;28;20095;-62
2022/10/01 01:37:58;;;;;;;8.90;7.07;;;;;;;23.79;41.49;101774.00;4181183;28;20045;-62
2022/10/01 01:40:02;;;;;;;10.40;7.60;;;;;;;23.63;41.43;101744.34;4181350;28;20103;-62
2022/10/01 01:42:09;;;;;;;10.25;6.82;;;;;;;23.79;41.39;101768.44;4180903;28;20549;-62
2022/10/01 01:44:11;;;;;;;8.77;7.68;;;;;;;23.80;41.71;101761.72;4181141;28;20037;-62
2022/10/01 01:46:17;;;;;;;10.13;7.05;;;;;;;23.80;41.52;101753.31;4180298;28;20025;-62
2022/10/01 01:48:21;;;;;;;9.68;7.00;;;;;;;23.58;41.59;101713.63;4181008;28;20037;-62
2022/10/01 01:50:24;;;;;;;10.95;7.25;;;;;;;23.78;41.49;101741.59;4181208;28;20095;-62
2022/10/01 01:52:25;;;;;;;9.98;7.20;;;;;;;23.78;41.71;101746.34;4180759;28;20033;-62
2022/10/01 01:54:28;;;;;;;9.55;7.35;;;;;;;23.78;41.73;101747.19;4179430;28;20123;-62
2022/10/01 01:56:31;;;;;;;9.10;6.28;;;;;;;23.78;41.46;101757.53;4181058;28;20033;-62
2022/10/01 01:58:34;;;;;;;9.35;6.18;;;;;;;23.77;41.50;101759.47;4180932;28;20025;-63
2022/10/01 02:00:39;;;;;;;8.60;6.75;;;;;;;23.77;41.28;101756.66;4180390;28;20040;-62
2022/10/01 02:02:48;;;;;;;9.10;6.88;;;;;;;23.76;41.74;101757.78;4180291;28;20045;-62
2022/10/01 02:05:03;;;;;;;11.38;6.97;;;;;;;23.76;41.81;101755.00;4180890;28;20029;-62
2022/10/01 02:07:23;;;;;;;8.38;6.20;;;;;;;23.76;41.85;101755.00;4181080;28;20041;-62
2022/10/01 02:09:33;;;;;;;10.63;6.97;;;;;;;23.69;41.77;101743.28;4180859;28;20033;-62
2022/10/01 02:11:45;;;;;;;8.60;6.82;;;;;;;23.46;41.90;101690.72;4182411;28;20045;-61
2022/10/01 02:13:55;;;;;;;7.82;6.32;;;;;;;23.77;41.67;101734.31;4183917;28;20094;-61
2022/10/01 02:16:21;;;;;;;11.90;6.78;;;;;;;23.75;41.71;101725.38;4194781;28;20181;-61
2022/10/01 02:18:26;;;;;;;;;;;;;;;23.77;41.58;101733.47;4185263;28;20095;-60
2022/10/01 02:20:36;;;;;;;9.95;6.88;;;;;;;23.77;41.62;101725.94;4190094;28;19916;-60
2022/10/01 02:22:49;;;;;;;9.38;6.13;;;;;;;23.81;41.55;101746.59;4184646;28;20078;-60
2022/10/01 02:25:00;;;;;;;8.27;6.50;;;;;;;23.74;41.28;101746.06;4193098;28;20053;-60
2022/10/01 02:27:08;;;;;;;11.10;7.20;;;;;;;23.79;41.49;101748.03;4193699;28;20049;-61
2022/10/01 02:29:13;;;;;;;11.32;6.90;;;;;;;23.78;41.66;101736.00;4186724;28;20045;-60
2022/10/01 02:31:16;;;;;;;;;;;;;;;23.77;41.46;101734.31;4192047;28;20074;-60
2022/10/01 02:33:23;;;;;;;9.43;6.00;;;;;;;23.58;41.73;101680.09;4188007;28;19917;-61
2022/10/01 02:35:27;;;;;;;9.60;6.32;;;;;;;23.82;41.76;101731.53;4192962;28;20041;-60
2022/10/01 02:37:28;;;;;;;10.98;6.65;;;;;;;23.81;41.75;101742.97;4194807;28;20553;-61
2022/10/01 02:39:33;;;;;;;11.90;6.18;;;;;;;23.79;41.60;101746.06;4187611;28;20036;-61
2022/10/01 02:41:35;;;;;;;8.38;5.72;;;;;;;23.79;41.64;101757.25;4186234;28;20156;-61
2022/10/01 02:43:44;;;;;;;11.10;6.82;;;;;;;23.79;42.01;101771.22;4192501;28;20427;-60
2022/10/01 02:45:50;;;;;;;12.07;7.32;;;;;;;23.79;41.58;101776.81;4194218;28;20357;-61
2022/10/01 02:48:04;;;;;;;9.73;6.93;;;;;;;23.77;41.62;101787.41;4189856;28;20098;-61
2022/10/01 02:50:08;;;;;;;15.77;7.57;;;;;;;23.77;41.87;101779.03;4185666;28;20041;-60
2022/10/01 02:52:26;;;;;;;14.75;7.00;;;;;;;23.78;41.68;101783.53;4187839;28;20044;-60
2022/10/01 02:54:39;;;;;;;15.88;7.68;;;;;;;23.78;41.92;101791.91;4194157;28;20070;-60
2022/10/01 02:59:00;;;;;;;14.38;7.45;;;;;;;23.79;41.62;101793.59;4195483;28;20110;-61
2022/10/01 03:01:05;;;;;;;12.05;7.43;;;;;;;23.79;41.65;101775.97;4196530;28;20098;-61
2022/10/01 03:03:09;;;;;;;11.38;7.25;;;;;;;23.80;41.82;101749.69;4192658;28;20426;-61
2022/10/01 03:05:16;;;;;;;12.80;7.13;;;;;;;23.78;41.57;101730.41;4192315;28;20558;-61
2022/10/01 03:07:17;;;;;;;14.70;8.52;;;;;;;23.76;41.94;101704.69;4194793;28;20041;-61
2022/10/01 03:09:21;;;;;;;17.92;8.13;;;;;;;23.74;41.63;101701.38;4197718;28;20098;-61
2022/10/01 03:11:23;;;;;;;16.63;7.83;;;;;;;23.79;41.94;101712.53;4192321;28;20826;-60
2022/10/01 03:13:27;;;;;;;14.85;8.30;;;;;;;23.78;41.79;101730.41;4187688;28;20282;-60
2022/10/01 03:15:28;;;;;;;16.50;8.05;;;;;;;23.57;41.98;101695.19;4195624;28;20048;-60
2022/10/01 03:17:34;;;;;;;13.60;8.18;;;;;;;23.78;41.83;101738.81;4190086;28;20090;-60
2022/10/01 03:19:36;;;;;;;13.52;8.23;;;;;;;23.77;41.70;101734.31;4189416;28;20470;-60
2022/10/01 03:21:40;;;;;;;14.60;8.63;;;;;;;23.69;42.12;101720.94;4196278;28;20109;-60
2022/10/01 03:23:41;;;;;;;18.10;9.00;;;;;;;23.73;41.98;101738.81;4196964;28;20094;-60
2022/10/01 03:25:42;;;;;;;14.68;8.20;;;;;;;23.79;41.77;101743.28;4196787;28;20036;-60
2022/10/01 03:27:45;;;;;;;14.10;8.43;;;;;;;23.72;41.87;101739.91;4194754;28;20090;-60
2022/10/01 03:29:46;;;;;;;16.98;8.52;;;;;;;23.73;41.79;101744.41;4193715;28;20438;-60
2022/10/01 03:31:50;;;;;;;13.63;8.57;;;;;;;23.77;42.16;101748.28;4195405;28;20049;-60
2022/10/01 03:33:52;;;;;;;17.00;8.30;;;;;;;23.55;41.85;101714.22;4194941;28;20045;-60
2022/10/01 03:35:53;;;;;;;15.75;8.02;;;;;;;23.73;41.88;101747.19;4183869;28;20040;-61
2022/10/01 03:37:55;;;;;;;18.48;8.73;;;;;;;23.76;42.01;101746.63;4189495;28;20036;-60
2022/10/01 03:39:56;;;;;;;15.07;8.68;;;;;;;23.76;41.73;101746.63;4196424;28;20484;-61
2022/10/01 03:41:57;;;;;;;14.40;8.07;;;;;;;23.76;42.07;101732.66;4196921;28;20422;-60
2022/10/01 03:43:59;;;;;;;14.25;7.97;;;;;;;23.76;42.14;101738.22;4196536;28;20514;-60
2022/10/01 03:46:03;;;;;;;12.75;8.75;;;;;;;23.79;42.05;101743.28;4196253;28;20093;-60
2022/10/01 03:48:09;;;;;;;16.38;8.05;;;;;;;23.77;41.94;101734.31;4192064;28;20079;-60
2022/10/01 03:50:11;;;;;;;13.18;7.78;;;;;;;23.78;41.96;101757.53;4194813;28;20460;-60
2022/10/01 03:52:15;;;;;;;13.55;8.13;;;;;;;23.78;42.20;101751.94;4196182;28;20449;-61
2022/10/01 03:54:19;;;;;;;16.57;7.67;;;;;;;23.76;42.19;101743.81;4190991;28;20037;-61
2022/10/01 03:56:21;;;;;;;17.35;8.43;;;;;;;23.75;41.93;101736.56;4193124;28;20126;-60
2022/10/01 03:58:23;;;;;;;14.18;8.20;;;;;;;23.75;41.92;101725.38;4189110;28;20431;-61
2022/10/01 04:00:24;;;;;;;14.07;8.40;;;;;;;23.78;41.98;101707.22;4195079;28;20121;-61
2022/10/01 04:02:26;;;;;;;16.58;7.63;;;;;;;23.74;41.82;101695.78;4189322;28;20045;-62
2022/10/01 04:04:27;;;;;;;18.90;8.52;;;;;;;23.78;41.83;101693.25;4191615;28;20431;-60
2022/10/01 04:06:30;;;;;;;17.25;7.80;;;;;;;23.79;42.14;101694.94;4198072;28;20041;-61
2022/10/01 04:08:31;;;;;;;17.67;7.95;;;;;;;23.77;42.22;101700.78;4187430;28;20036;-60
2022/10/01 04:10:34;;;;;;;13.93;7.43;;;;;;;23.77;42.16;101700.78;4202415;28;20105;-60
2022/10/01 04:12:36;;;;;;;15.48;7.80;;;;;;;23.78;41.96;101698.84;4186813;28;20504;-60
2022/10/01 04:14:37;;;;;;;15.38;7.45;;;;;;;23.75;41.92;101703.03;4198798;28;20442;-62
2022/10/01 04:16:38;;;;;;;15.82;7.93;;;;;;;23.77;42.21;101706.38;4198432;28;20369;-61
2022/10/01 04:18:39;;;;;;;16.48;8.00;;;;;;;23.78;42.13;101702.47;4198778;28;20036;-61
2022/10/01 04:20:41;;;;;;;11.00;7.57;;;;;;;23.78;42.01;101715.63;4198767;28;20056;-62
2022/10/01 04:22:43;;;;;;;12.27;7.95;;;;;;;23.77;42.14;101723.13;4181215;28;20094;-61
2022/10/01 04:24:52;;;;;;;11.48;7.05;;;;;;;23.77;42.11;101731.53;4193906;28;20098;-61
2022/10/01 04:26:53;;;;;;;11.82;7.18;;;;;;;23.72;42.48;101725.94;4196455;28;20138;-60
2022/10/01 04:28:54;;;;;;;14.38;7.63;;;;;;;23.77;42.37;101745.50;4203394;28;20081;-61
2022/10/01 04:31:42;;;;;;;13.40;7.18;;;;;;;23.71;42.05;101741.03;4182283;28;20111;-61
2022/10/01 04:33:20;;;;;;;13.38;6.82;;;;;;;23.41;42.07;101693.53;4190826;28;20048;-61
2022/10/01 04:35:25;;;;;;;12.38;6.78;;;;;;;23.77;42.44;101751.09;4193178;28;20056;-62
2022/10/01 04:37:27;;;;;;;11.32;7.18;;;;;;;23.77;42.14;101767.84;4186428;28;20044;-61
2022/10/01 04:39:28;;;;;;;11.00;6.68;;;;;;;23.77;42.23;101784.63;4196922;28;20036;-61
2022/10/01 04:41:30;;;;;;;12.25;6.63;;;;;;;23.77;42.17;101784.63;4198074;28;20040;-61
2022/10/01 04:43:32;;;;;;;14.10;6.68;;;;;;;23.74;42.10;101768.44;4188955;28;20049;-61
2022/10/01 04:45:33;;;;;;;15.57;7.28;;;;;;;23.77;42.31;101745.50;4194102;28;20480;-61
2022/10/01 04:47:37;;;;;;;11.68;7.03;;;;;;;23.74;42.12;101711.72;4205254;28;20040;-62
2022/10/01 04:49:38;;;;;;;9.05;6.65;;;;;;;23.76;42.00;101690.72;4214765;28;20373;-61
2022/10/01 04:51:40;;;;;;;13.23;6.70;;;;;;;23.77;42.32;101658.84;4201583;28;20082;-62
2022/10/01 04:53:42;;;;;;;10.75;6.30;;;;;;;23.65;42.02;101599.66;4195409;28;20102;-61
2022/10/01 04:55:45;;;;;;;11.80;6.18;;;;;;;23.77;42.20;101636.50;4197798;28;20041;-62
2022/10/01 04:57:49;;;;;;;13.63;6.18;;;;;;;23.71;42.24;101631.22;4198146;28;20089;-61
2022/10/01 04:59:51;;;;;;;11.70;6.35;;;;;;;23.77;42.32;101639.28;4200933;28;20050;-61
2022/10/01 05:01:52;;;;;;;10.38;5.97;;;;;;;23.74;42.15;101609.16;4214073;28;20052;-62
2022/10/01 05:03:53;;;;;;;10.65;6.30;;;;;;;23.75;42.27;101596.84;4214106;28;20052;-61
2022/10/01 05:05:58;;;;;;;9.90;6.78;;;;;;;23.75;42.41;101580.06;4197830;28;20090;-61
2022/10/01 05:08:00;;;;;;;10.73;5.45;;;;;;;23.74;42.08;101572.81;4196559;28;20058;-62
2022/10/01 05:10:01;;;;;;;10.98;5.68;;;;;;;23.75;42.24;101568.91;4197669;28;20074;-61
2022/10/01 05:12:06;;;;;;;9.95;5.72;;;;;;;23.74;42.49;101553.25;4197736;28;20025;-61
2022/10/01 05:14:11;;;;;;;11.85;6.30;;;;;;;23.74;42.23;101547.66;4197598;28;20545;-61
2022/10/01 05:16:12;;;;;;;9.70;6.07;;;;;;;23.74;42.50;101544.88;4197619;28;20503;-62
2022/10/01 05:18:13;;;;;;;10.52;5.95;;;;;;;23.21;42.37;101451.44;4184995;28;20033;-61
2022/10/01 05:20:20;;;;;;;9.18;5.82;;;;;;;23.74;42.31;101538.44;4186152;28;20037;-61
2022/10/01 05:22:21;;;;;;;13.88;5.78;;;;;;;23.74;42.57;101533.69;4197168;28;20045;-61
2022/10/01 05:24:23;;;;;;;8.13;5.40;;;;;;;23.73;42.39;101543.19;4197725;28;20033;-61
2022/10/01 05:26:24;;;;;;;11.15;5.88;;;;;;;23.69;42.48;101553.28;4197869;28;20049;-61
2022/10/01 05:28:28;;;;;;;9.02;5.38;;;;;;;23.50;42.69;101532.63;4196862;28;20105;-61
2022/10/01 05:30:30;;;;;;;9.07;5.57;;;;;;;23.73;42.68;101575.88;4196871;28;20479;-61
2022/10/01 05:32:32;;;;;;;10.30;5.38;;;;;;;23.67;42.53;101572.25;4180725;28;20091;-61
2022/10/01 05:34:34;;;;;;;11.10;5.97;;;;;;;23.73;42.65;101599.09;4179952;28;20508;-61
2022/10/01 05:36:37;;;;;;;8.90;5.38;;;;;;;23.72;42.63;101596.56;4201195;28;20381;-61
2022/10/01 05:38:39;;;;;;;9.20;4.93;;;;;;;23.72;42.73;101594.59;4213978;28;20495;-61
2022/10/01 05:40:44;;;;;;;9.65;5.32;;;;;;;23.49;42.77;101564.47;4212262;28;20040;-61
2022/10/01 05:42:49;;;;;;;9.73;5.22;;;;;;;23.73;42.53;101601.88;4197085;28;20036;-61
2022/10/01 05:44:50;;;;;;;8.55;5.28;;;;;;;23.61;42.70;101573.38;4197738;28;20542;-61
2022/10/01 05:46:52;;;;;;;9.02;5.80;;;;;;;23.72;42.62;101605.78;4197316;28;20040;-61
2022/10/01 05:48:54;;;;;;;7.03;5.60;;;;;;;23.72;42.62;101614.16;4197446;28;20048;-62
2022/10/01 05:50:57;;;;;;;6.53;4.55;;;;;;;23.72;42.64;101619.75;4196022;28;20032;-61
2022/10/01 05:53:00;;;;;;;10.48;4.93;;;;;;;23.72;42.82;101594.59;4184001;28;20040;-62
2022/10/01 05:55:04;;;;;;;10.10;5.22;;;;;;;23.71;42.87;101564.16;4214232;28;20499;-62
2022/10/01 05:57:07;;;;;;;8.20;5.30;;;;;;;23.71;42.78;101545.44;4196374;28;20095;-62
2022/10/01 05:59:08;;;;;;;8.25;5.03;;;;;;;23.72;42.78;101546.25;4181000;28;20336;-62
2022/10/01 06:01:09;;;;;;;13.20;4.95;;;;;;;23.72;42.51;101569.44;4180857;28;20041;-62
2022/10/01 06:03:11;;;;;;;8.00;4.78;;;;;;;23.72;42.84;101591.81;4180617;28;20029;-62
2022/10/01 06:05:13;;;;;;;6.70;4.70;;;;;;;23.69;42.81;101597.97;4180756;28;20044;-61
2022/10/01 06:07:17;;;;;;;9.45;4.70;;;;;;;23.71;42.89;101581.75;4181100;28;20132;-62
2022/10/01 06:09:18;;;;;;;6.68;4.43;;;;;;;23.62;43.02;101523.94;4181380;28;20114;-62
2022/10/01 06:11:23;;;;;;;8.27;4.00;;;;;;;23.65;42.58;101537.38;4180780;28;20041;-62
2022/10/01 06:13:25;;;;;;;;;;;;;;;23.68;42.58;101573.94;4180595;28;20041;-62
2022/10/01 06:15:28;;;;;;;7.07;4.82;;;;;;;23.75;42.58;101585.66;4181148;28;19916;-62
2022/10/01 06:17:29;;;;;;;6.68;4.60;;;;;;;23.73;42.79;101565.56;4180478;28;20424;-62
2022/10/01 06:19:30;;;;;;;9.48;4.95;;;;;;;23.70;42.88;101577.28;4180472;28;20037;-62
2022/10/01 06:21:31;;;;;;;7.65;4.20;;;;;;;23.66;42.72;101583.75;4180322;28;20037;-61
2022/10/01 06:23:34;;;;;;;9.13;4.72;;;;;;;23.70;42.72;101584.84;4180837;28;20037;-62
2022/10/01 06:25:37;;;;;;;7.85;4.30;;;;;;;23.61;42.90;101578.97;4181263;28;20037;-62
2022/10/01 06:27:38;;;;;;;9.07;4.65;;;;;;;23.70;42.71;101598.81;4180346;28;20102;-62
2022/10/01 06:29:40;;;;;;;7.32;5.00;;;;;;;23.69;42.77;101581.22;4186963;28;20475;-62
2022/10/01 06:31:41;;;;;;;7.72;4.28;;;;;;;23.65;42.61;101551.34;4202285;28;20041;-62
2022/10/01 06:33:43;;;;;;;5.43;4.00;;;;;;;23.58;42.97;101535.66;4197157;28;20121;-62
2022/10/01 06:35:49;;;;;;;6.75;4.05;;;;;;;23.70;42.69;101566.13;4197183;28;20037;-61
2022/10/01 06:37:51;;;;;;;6.93;3.92;;;;;;;23.60;42.79;101566.13;4183646;28;20052;-61
2022/10/01 06:39:55;;;;;;;8.80;4.75;;;;;;;23.59;42.91;101584.00;4183862;28;20117;-61
2022/10/01 06:41:56;;;;;;;8.60;4.18;;;;;;;23.63;43.03;101587.88;4182536;28;20554;-62
2022/10/01 06:44:02;;;;;;;7.35;4.15;;;;;;;23.65;42.97;101608.06;4183872;28;20033;-61
2022/10/01 06:46:07;;;;;;;8.05;3.75;;;;;;;23.49;42.94;101582.06;4183890;28;20423;-62
2022/10/01 06:48:12;;;;;;;7.90;3.97;;;;;;;23.69;42.77;101564.44;4183806;28;20102;-62
2022/10/01 06:50:16;;;;;;;7.68;4.13;;;;;;;23.47;43.09;101510.84;4183688;28;20041;-61
2022/10/01 06:54:40;;;;;;;6.43;3.67;;;;;;;23.70;42.67;101576.47;4190343;28;20675;-62
2022/10/01 06:56:41;;;;;;;6.35;3.90;;;;;;;23.69;42.67;101575.63;4199794;28;20153;-62
2022/10/01 06:58:45;;;;;;;6.07;3.72;;;;;;;23.69;42.92;101584.00;4195319;28;20427;-62
2022/10/01 07:00:48;;;;;;;6.38;4.07;;;;;;;23.60;43.02;101577.31;4200015;28;20037;-62
2022/10/01 07:02:49;;;;;;;6.03;3.92;;;;;;;23.69;42.63;101556.06;4199741;28;20032;-62
2022/10/01 07:04:51;;;;;;;7.03;4.57;;;;;;;23.70;43.03;101520.56;4198424;28;20098;-62
2022/10/01 07:06:56;;;;;;;7.85;3.75;;;;;;;23.69;42.94;101508.56;4200185;28;20037;-62
2022/10/01 07:09:03;;;;;;;5.55;3.80;;;;;;;23.68;43.05;101490.09;4200087;28;20094;-61
2022/10/01 07:11:10;;;;;;;5.95;3.63;;;;;;;23.65;43.12;101459.97;4192701;28;20037;-62
2022/10/01 07:13:17;;;;;;;6.75;2.90;;;;;;;23.66;43.20;101458.84;4192452;28;20048;-62
2022/10/01 07:15:21;;;;;;;7.72;3.55;;;;;;;23.67;42.83;101465.25;4190921;28;20095;-62
2022/10/01 07:17:23;;;;;;;6.03;4.15;;;;;;;23.67;42.62;101465.25;4193696;28;20516;-61
2022/10/01 07:19:24;;;;;;;7.20;3.70;;;;;;;23.66;43.10;101492.38;4183363;28;20032;-61
2022/10/01 07:21:25;;;;;;;4.72;3.22;;;;;;;23.67;42.68;101505.22;4187578;28;20028;-62
2022/10/01 07:23:27;;;;;;;6.82;4.55;;;;;;;23.66;42.72;101502.72;4197060;28;20364;-61
2022/10/01 07:25:28;;;;;;;5.70;3.47;;;;;;;23.66;42.74;101503.53;4196355;28;20040;-61
2022/10/01 07:27:30;;;;;;;7.93;3.65;;;;;;;23.67;43.02;101485.66;4199721;28;20439;-62
2022/10/01 07:29:34;;;;;;;5.63;3.85;;;;;;;23.55;42.74;101457.19;4188168;28;20041;-61
2022/10/01 07:31:35;;;;;;;5.90;3.25;;;;;;;23.63;42.68;101452.94;4192476;28;20111;-61
2022/10/01 07:33:38;;;;;;;5.05;3.63;;;;;;;23.65;43.10;101434.00;4183137;28;20037;-61
2022/10/01 07:35:40;;;;;;;5.55;3.97;;;;;;;23.66;42.81;101425.31;4187738;28;20074;-61
2022/10/01 07:37:41;;;;;;;5.60;3.30;;;;;;;23.46;43.09;101377.88;4182944;28;20106;-61
2022/10/01 07:39:42;;;;;;;6.50;3.47;;;;;;;23.65;43.10;101415.25;4183738;28;20041;-61
2022/10/01 07:41:52;;;;;;;5.30;3.15;;;;;;;23.65;43.10;101423.66;4196606;28;20094;-61
2022/10/01 07:43:53;;;;;;;6.20;3.25;;;;;;;23.65;42.92;101414.44;4189128;28;20040;-61
2022/10/01 07:45:58;;;;;;;4.85;2.85;;;;;;;23.64;42.91;101427.56;4182777;28;20037;-61
2022/10/01 07:48:02;;;;;;;4.18;3.00;;;;;;;23.66;42.82;101418.88;4183597;28;20045;-62
2022/10/01 07:50:06;;;;;;;5.75;3.00;;;;;;;23.62;43.04;101417.75;4189645;28;20037;-61
2022/10/01 07:52:07;;;;;;;4.90;3.03;;;;;;;23.65;42.81;101423.66;4182502;28;20033;-61
2022/10/01 07:54:12;;;;;;;6.45;3.03;;;;;;;23.61;42.78;101428.09;4181773;28;20317;-61
2022/10/01 07:56:19;;;;;;;;;;;;;;;23.63;43.08;101447.38;4195999;28;20485;-61
2022/10/01 07:58:22;;;;;;;4.50;3.13;;;;;;;23.45;42.73;101430.13;4191726;28;19917;-61
2022/10/01 08:00:26;;;;;;;5.50;3.30;;;;;;;23.69;42.77;101458.28;4187845;28;20098;-61
2022/10/01 08:02:27;;;;;;;4.40;3.28;;;;;;;23.46;42.65;101422.56;4185563;28;20071;-61
2022/10/01 08:06:48;;;;;;;5.70;2.95;;;;;;;23.66;43.14;101453.25;4183170;28;20094;-61
2022/10/01 08:08:52;;;;;;;3.92;2.83;;;;;;;23.65;42.84;101451.59;4182526;28;20465;-61
2022/10/01 08:10:53;;;;;;;7.25;2.95;;;;;;;23.61;42.80;101444.03;4182130;28;20066;-62
2022/10/01 08:13:07;;;;;;;4.80;3.05;;;;;;;23.64;42.66;101443.44;4195986;28;20044;-61
2022/10/01 08:15:14;;;;;;;5.43;3.00;;;;;;;23.64;42.86;101451.81;4186015;28;20446;-62
2022/10/01 08:17:21;;;;;;;4.82;2.63;;;;;;;23.64;43.28;101454.63;4195007;28;20472;-62
2022/10/01 08:19:23;;;;;;;4.43;2.75;;;;;;;23.41;43.14;101417.00;4197397;28;20102;-61
2022/10/01 08:21:27;;;;;;;3.63;2.47;;;;;;;23.62;42.97;101477.25;4193254;28;20040;-62
2022/10/01 08:23:33;;;;;;;4.70;2.85;;;;;;;23.63;42.82;101469.72;4196242;28;20545;-62
2022/10/01 08:25:37;;;;;;;4.60;2.67;;;;;;;23.62;43.08;101491.22;4197059;28;20048;-62
2022/10/01 08:27:38;;;;;;;3.60;2.58;;;;;;;23.63;43.26;101500.44;4183823;28;20075;-61
2022/10/01 08:29:42;;;;;;;5.70;3.25;;;;;;;23.62;42.96;101496.81;4181870;28;20082;-61
2022/10/01 08:31:43;;;;;;;5.40;2.80;;;;;;;23.62;43.08;101505.19;4193080;28;20040;-62
2022/10/01 08:33:47;;;;;;;3.10;2.47;;;;;;;23.62;42.89;101523.94;4196164;28;20056;-62
2022/10/01 08:35:48;;;;;;;2.75;2.33;;;;;;;23.38;43.22;101495.81;4188574;28;20103;-62
2022/10/01 08:37:54;;;;;;;3.55;2.50;;;;;;;23.58;43.14;101529.25;4191079;28;20385;-61
2022/10/01 08:39:56;;;;;;;4.55;2.60;;;;;;;23.62;43.07;101555.50;4197467;28;20048;-61
2022/10/01 08:42:07;;;;;;;3.97;2.72;;;;;;;23.62;42.97;101563.88;4194925;28;20040;-62
2022/10/01 08:44:17;;;;;;;3.55;2.53;;;;;;;23.61;43.30;101545.44;4193096;28;20090;-62
2022/10/01 08:46:24;;;;;;;3.10;2.50;;;;;;;23.63;43.29;101536.75;4183674;28;20033;-62
2022/10/01 08:48:57;;;;;;;5.47;2.50;;;;;;;23.61;43.00;101499.91;4181500;28;20094;-62
2022/10/01 08:51:10;;;;;;;4.68;2.90;;;;;;;23.62;42.85;101463.28;4191789;28;20070;-62
2022/10/01 08:53:21;;;;;;;3.63;2.40;;;;;;;23.42;43.01;101401.94;4196098;28;20040;-62
2022/10/01 08:55:26;;;;;;;2.97;2.30;;;;;;;23.61;43.23;101422.50;4182907;28;20045;-62
2022/10/01 08:57:45;;;;;;;3.38;2.28;;;;;;;23.61;43.35;101400.16;4190691;28;20098;-61
2022/10/01 08:59:56;;;;;;;2.97;2.45;;;;;;;23.60;42.99;101387.31;4194080;28;20121;-62
2022/10/01 09:01:58;;;;;;;2.85;2.08;;;;;;;23.60;43.27;101398.50;4193138;28;20048;-62
2022/10/01 09:04:02;;;;;;;4.38;2.58;;;;;;;23.51;43.01;101383.47;4193889;28;20044;-62
2022/10/01 09:06:27;;;;;;;2.78;2.42;;;;;;;23.55;43.33;101367.81;4197384;28;20094;-62
2022/10/01 09:08:45;;;;;;;2.85;2.20;;;;;;;23.57;43.08;101379.50;4181096;28;20087;-63
2022/10/01 09:10:54;;;;;;;2.63;2.13;;;;;;;23.59;42.89;101407.97;4181124;28;20114;-62
2022/10/01 09:13:33;;;;;;;2.45;1.80;;;;;;;23.57;43.09;101424.22;4180823;28;20033;-62
2022/10/01 09:15:41;;;;;;;2.95;2.17;;;;;;;23.58;43.23;101454.63;4182171;28;20053;-62
2022/10/01 09:18:17;;;;;;;3.00;2.13;;;;;;;23.56;42.94;101447.69;4180885;28;20032;-62
2022/10/01 09:20:38;;;;;;;3.38;2.35;;;;;;;23.57;43.03;101482.88;4196455;28;20066;-61
2022/10/01 09:23:16;;;;;;;2.92;2.20;;;;;;;23.56;43.15;101490.41;4187995;28;20094;-62
2022/10/01 09:25:25;;;;;;;2.90;2.38;;;;;;;23.59;43.30;101475.91;4183523;28;20138;-62
2022/10/01 09:27:27;;;;;;;2.67;2.47;;;;;;;23.59;43.03;101463.84;4195497;28;20044;-61
2022/10/01 09:30:02;;;;;;;2.72;1.98;;;;;;;23.55;43.11;101454.41;4182080;28;20049;-61
2022/10/01 09:32:05;;;;;;;3.17;2.25;;;;;;;23.57;43.23;101436.22;4189570;28;20106;-62
2022/10/01 09:34:32;;;;;;;3.45;2.20;;;;;;;23.55;43.34;101437.66;4182047;28;20461;-61
2022/10/01 09:36:40;;;;;;;3.95;2.45;;;;;;;23.58;43.05;101434.25;4185024;28;20090;-62
2022/10/01 09:38:45;;;;;;;3.10;2.17;;;;;;;23.56;43.37;101442.94;4190433;28;20468;-62
2022/10/01 09:40:57;;;;;;;4.22;2.60;;;;;;;23.42;43.29;101430.72;4196024;28;20048;-62
2022/10/01 09:42:59;;;;;;;3.60;2.30;;;;;;;23.55;43.31;101468.38;4184992;28;20040;-62
2022/10/01 09:45:00;;;;;;;2.22;1.90;;;;;;;23.54;43.32;101469.47;4183781;28;20098;-61
2022/10/01 09:47:02;;;;;;;2.80;2.30;;;;;;;23.54;43.05;101444.31;4196234;28;20040;-61